Time;durP1;ratioP1;P1;durP2;ratioP2;P2;SDS_P1;SDS_P2;PMS_P1;PMS_P2;Temp;Humidity;BMP_temperature;BMP_pressure;BME280_temperature;BME280_humidity;BME280_pressure;Samples;Min_cycle;Max_cycle;Signal;HPM_P1;HPM_P2
2024/02/03 00:04:09;;;;;;;10.30;8.47;;;;;;;6.31;100.00;100315.48;5306957;54;1138475;-74
2024/02/03 00:09:15;;;;;;;8.93;6.73;;;;;;;6.35;100.00;100307.33;5295112;54;1138555;-73
2024/02/03 00:14:20;;;;;;;9.33;6.87;;;;;;;6.38;100.00;100298.88;5295439;54;1136326;-75
2024/02/03 00:19:26;;;;;;;9.30;6.43;;;;;;;6.41;100.00;100298.22;5315054;54;1136600;-75
2024/02/03 00:24:32;;;;;;;9.00;6.20;;;;;;;6.41;100.00;100291.66;5273607;54;1143155;-75
2024/02/03 00:29:38;;;;;;;8.30;6.33;;;;;;;6.44;100.00;100305.88;5221936;54;1136869;-73
2024/02/03 00:34:44;;;;;;;5.53;5.00;;;;;;;6.49;100.00;100310.85;5127037;54;1136534;-74
2024/02/03 00:39:50;;;;;;;7.95;5.22;;;;;;;6.49;100.00;100310.85;5087128;55;1136717;-75
2024/02/03 00:44:55;;;;;;;7.83;5.73;;;;;;;6.57;100.00;100311.22;5207341;55;1136760;-75
2024/02/03 00:50:01;;;;;;;9.87;6.47;;;;;;;6.57;100.00;100315.97;5164456;55;1136885;-74
2024/02/03 00:55:07;;;;;;;5.33;4.83;;;;;;;6.60;100.00;100324.14;5089653;54;1136731;-74
2024/02/03 01:00:14;;;;;;;4.87;4.43;;;;;;;6.64;100.00;100321.69;5084480;55;1136657;-74
2024/02/03 01:05:19;;;;;;;4.30;3.40;;;;;;;6.68;100.00;100325.81;5182140;54;1136659;-74
2024/02/03 01:10:26;;;;;;;7.47;3.60;;;;;;;6.69;100.00;100319.15;5259842;54;1136745;-74
2024/02/03 01:15:32;;;;;;;3.23;2.93;;;;;;;6.74;100.00;100316.20;5183519;54;1249477;-74
2024/02/03 01:20:37;;;;;;;3.23;2.97;;;;;;;6.78;100.00;100313.75;5191192;54;1136588;-74
2024/02/03 01:25:44;;;;;;;3.27;3.00;;;;;;;6.82;100.00;100320.98;5205069;55;1136846;-74
2024/02/03 01:30:50;;;;;;;3.00;2.70;;;;;;;6.83;100.00;100318.72;5178955;55;1136757;-76
2024/02/03 01:35:55;;;;;;;3.63;3.30;;;;;;;6.84;100.00;100324.35;5121174;54;1136794;-75
2024/02/03 01:41:01;;;;;;;3.57;3.07;;;;;;;6.88;100.00;100316.14;5185494;55;1136758;-74
2024/02/03 01:46:06;;;;;;;2.90;2.70;;;;;;;6.90;100.00;100324.78;5053093;56;1136571;-75
2024/02/03 01:51:13;;;;;;;3.33;3.00;;;;;;;6.94;100.00;100323.64;5173250;54;1136602;-75
2024/02/03 01:56:19;;;;;;;3.17;2.40;;;;;;;6.96;100.00;100314.34;5115906;56;1138916;-74
2024/02/03 02:01:26;;;;;;;2.77;2.57;;;;;;;6.99;100.00;100311.52;5235493;55;1136864;-74
2024/02/03 02:06:32;;;;;;;2.97;2.77;;;;;;;7.06;100.00;100337.28;5215969;55;1136517;-74
2024/02/03 02:11:37;;;;;;;3.70;2.47;;;;;;;7.11;100.00;100311.17;5213948;55;1138609;-75
2024/02/03 02:16:43;;;;;;;2.20;2.03;;;;;;;7.14;100.00;100317.08;5213158;55;1138797;-75
2024/02/03 02:21:49;;;;;;;2.52;2.33;;;;;;;7.20;100.00;100326.32;5235852;55;1138751;-74
2024/02/03 02:26:54;;;;;;;1.27;1.27;;;;;;;7.25;100.00;100323.77;5203268;55;1138631;-74
2024/02/03 02:32:00;;;;;;;2.08;1.98;;;;;;;7.31;100.00;100318.58;5196796;55;1139018;-75
2024/02/03 02:37:05;;;;;;;2.53;2.33;;;;;;;7.33;100.00;100307.48;5171207;55;1138411;-74
2024/02/03 02:42:11;;;;;;;2.30;2.10;;;;;;;7.34;100.00;100294.67;5149654;55;1138658;-73
2024/02/03 02:47:17;;;;;;;2.47;2.27;;;;;;;7.37;100.00;100297.94;5162665;55;1139001;-74
2024/02/03 02:52:22;;;;;;;2.63;2.10;;;;;;;7.41;100.00;100300.74;5228206;55;1138440;-75
2024/02/03 02:57:28;;;;;;;2.40;2.20;;;;;;;7.49;100.00;100304.16;5203135;55;1138418;-74
2024/02/03 03:02:33;;;;;;;2.10;2.00;;;;;;;7.53;100.00;100300.38;5203154;55;1138641;-75
2024/02/03 03:07:46;;;;;;;2.20;2.00;;;;;;;7.56;100.00;100312.02;5202963;55;1138824;-74
2024/02/03 03:12:47;;;;;;;3.37;2.07;;;;;;;7.62;100.00;100331.81;5220327;55;1138563;-74
2024/02/03 03:17:52;;;;;;;1.75;1.65;;;;;;;7.68;100.00;100318.22;5203697;55;1138689;-74
2024/02/03 03:22:58;;;;;;;2.07;1.87;;;;;;;7.73;100.00;100320.06;5204356;55;1181229;-74
2024/02/03 03:28:07;;;;;;;2.10;1.93;;;;;;;7.77;100.00;100322.87;5235466;55;1138591;-74
2024/02/03 03:33:12;;;;;;;1.80;1.60;;;;;;;7.81;100.00;100320.84;5216935;54;1198212;-73
2024/02/03 03:38:18;;;;;;;2.30;2.17;;;;;;;7.85;100.00;100323.64;5277191;54;1138594;-74
2024/02/03 03:43:23;;;;;;;1.43;1.40;;;;;;;7.89;100.00;100314.11;5236401;54;1138651;-74
2024/02/03 03:48:29;;;;;;;1.97;1.83;;;;;;;7.92;100.00;100311.74;5103237;55;1151769;-74
2024/02/03 03:53:34;;;;;;;2.67;2.47;;;;;;;7.95;100.00;100326.83;5176403;55;1176854;-75
2024/02/03 03:58:40;;;;;;;2.70;2.50;;;;;;;7.97;100.00;100336.78;5203038;55;1144963;-75
2024/02/03 04:03:46;;;;;;;3.72;2.70;;;;;;;8.00;100.00;100335.27;5223843;55;1138557;-75
2024/02/03 04:08:52;;;;;;;3.08;2.20;;;;;;;8.01;100.00;100325.57;5203146;55;1138524;-74
2024/02/03 04:13:57;;;;;;;3.13;2.83;;;;;;;8.03;100.00;100320.56;5203320;55;1138986;-74
2024/02/03 04:19:03;;;;;;;4.77;2.00;;;;;;;8.07;100.00;100315.47;5224143;55;1138731;-74
2024/02/03 04:24:08;;;;;;;2.73;2.30;;;;;;;8.07;100.00;100312.83;5151571;55;1238292;-74
2024/02/03 04:29:14;;;;;;;5.33;2.53;;;;;;;8.13;100.00;100332.13;5185821;55;1231181;-75
2024/02/03 04:34:20;;;;;;;6.93;2.53;;;;;;;8.16;100.00;100312.64;5223940;55;1237170;-76
2024/02/03 04:39:25;;;;;;;2.70;2.50;;;;;;;8.18;100.00;100312.06;5202018;55;1252931;-74
2024/02/03 04:44:31;;;;;;;4.07;3.43;;;;;;;8.23;100.00;100335.45;5060485;56;1241726;-74
2024/02/03 04:49:37;;;;;;;4.27;3.87;;;;;;;8.26;100.00;100330.78;5168805;56;1236585;-77
2024/02/03 04:54:43;;;;;;;3.95;3.55;;;;;;;8.30;100.00;100334.05;5097054;56;1265815;-76
2024/02/03 04:59:48;;;;;;;5.20;3.57;;;;;;;8.33;100.00;100332.55;5146932;56;1240731;-75
2024/02/03 05:04:54;;;;;;;3.37;2.77;;;;;;;8.34;100.00;100331.13;5146649;56;1254530;-74
2024/02/03 05:10:00;;;;;;;7.70;2.90;;;;;;;8.38;100.00;100323.86;5170810;55;1138728;-75
2024/02/03 05:15:06;;;;;;;5.10;3.63;;;;;;;8.42;100.00;100337.16;5146005;56;1256289;-74
2024/02/03 05:20:12;;;;;;;3.00;2.67;;;;;;;8.43;100.00;100329.62;5147841;56;1250353;-74
2024/02/03 05:25:18;;;;;;;4.70;3.30;;;;;;;8.45;100.00;100315.86;5240736;54;1138676;-74
2024/02/03 05:30:24;;;;;;;4.47;3.23;;;;;;;8.46;100.00;100311.80;5219845;54;1138911;-74
2024/02/03 05:35:29;;;;;;;3.40;3.00;;;;;;;8.51;100.00;100316.75;5172073;54;1138791;-75
2024/02/03 05:40:35;;;;;;;6.30;4.53;;;;;;;8.55;100.00;100331.87;5225992;55;1138759;-75
2024/02/03 05:45:40;;;;;;;7.43;3.17;;;;;;;8.54;100.00;100325.76;5208079;54;1138897;-75
2024/02/03 05:50:46;;;;;;;4.87;2.52;;;;;;;8.56;100.00;100309.33;5152568;55;1145358;-75
2024/02/03 05:55:52;;;;;;;4.27;2.80;;;;;;;8.56;100.00;100305.37;5167011;55;1138799;-74
2024/02/03 06:00:57;;;;;;;6.27;2.57;;;;;;;8.59;100.00;100308.27;5137745;55;1138777;-74
2024/02/03 06:06:03;;;;;;;5.57;3.80;;;;;;;8.59;100.00;100314.38;5158909;54;1224431;-75
2024/02/03 06:11:09;;;;;;;3.85;3.25;;;;;;;8.59;100.00;100310.91;5164285;55;1138660;-75
2024/02/03 06:16:15;;;;;;;4.03;3.50;;;;;;;8.59;100.00;100328.04;5167543;54;1138414;-75
2024/02/03 06:21:21;;;;;;;3.90;3.17;;;;;;;8.60;100.00;100320.02;5155438;55;1243731;-75
2024/02/03 06:26:30;;;;;;;6.87;3.90;;;;;;;8.63;100.00;100335.63;5135874;55;1188682;-75
2024/02/03 06:31:33;;;;;;;4.03;3.40;;;;;;;8.63;100.00;100341.38;5141916;55;1138787;-74
2024/02/03 06:36:40;;;;;;;4.25;3.85;;;;;;;8.62;100.00;100341.00;5209256;55;1138574;-75
2024/02/03 06:41:46;;;;;;;5.22;4.42;;;;;;;8.61;100.00;100340.64;5152837;55;1138832;-73
2024/02/03 06:46:51;;;;;;;6.98;4.80;;;;;;;8.57;100.00;100344.44;5135138;56;1138948;-75
2024/02/03 06:51:57;;;;;;;10.48;5.78;;;;;;;8.52;100.00;100351.86;5163147;55;1138557;-74
2024/02/03 06:57:02;;;;;;;6.70;5.57;;;;;;;8.44;100.00;100348.44;5203125;54;1140529;-74
2024/02/03 07:02:08;;;;;;;5.20;4.80;;;;;;;8.39;100.00;100355.37;5229061;54;1138564;-76
2024/02/03 07:07:16;;;;;;;5.23;4.27;;;;;;;8.35;100.00;100352.58;5203387;54;1138333;-78
2024/02/03 07:12:21;;;;;;;4.97;4.30;;;;;;;8.32;100.00;100344.05;5203145;55;1138439;-78
2024/02/03 07:17:27;;;;;;;5.70;4.97;;;;;;;8.33;100.00;100329.92;5215236;55;1138587;-78
2024/02/03 07:22:32;;;;;;;7.90;5.57;;;;;;;8.34;100.00;100337.72;5194034;55;1138658;-78
2024/02/03 07:27:38;;;;;;;6.00;3.93;;;;;;;8.33;100.00;100320.22;5204185;55;1138761;-78
2024/02/03 07:32:44;;;;;;;5.78;5.28;;;;;;;8.33;100.00;100322.02;5285867;54;1138761;-77
2024/02/03 07:37:50;;;;;;;9.33;5.45;;;;;;;8.36;100.00;100319.17;5200539;55;1138683;-78
2024/02/03 07:42:55;;;;;;;5.87;5.17;;;;;;;8.44;100.00;100326.03;5197318;54;1138695;-78
2024/02/03 07:48:02;;;;;;;8.63;5.63;;;;;;;8.52;100.00;100349.22;5214293;54;1139013;-77
2024/02/03 07:53:07;;;;;;;5.97;4.67;;;;;;;8.57;100.00;100340.48;5254667;54;1138616;-78
2024/02/03 07:58:13;;;;;;;4.63;3.97;;;;;;;8.60;100.00;100349.49;5233083;54;1138467;-78
2024/02/03 08:03:18;;;;;;;5.10;4.60;;;;;;;8.65;100.00;100345.59;5199903;54;1138728;-78
2024/02/03 08:08:24;;;;;;;6.63;5.17;;;;;;;8.68;100.00;100357.23;5236690;55;1138410;-78
2024/02/03 08:13:30;;;;;;;5.20;4.13;;;;;;;8.72;100.00;100358.67;5228507;54;1138598;-78
2024/02/03 08:18:36;;;;;;;3.83;3.37;;;;;;;8.77;100.00;100359.19;5270267;55;1138684;-78
2024/02/03 08:23:41;;;;;;;4.57;4.00;;;;;;;8.80;100.00;100372.64;5232417;54;1146058;-78
2024/02/03 08:28:47;;;;;;;4.33;3.42;;;;;;;8.82;100.00;100373.38;5259552;55;1138585;-77
2024/02/03 08:33:52;;;;;;;4.10;3.62;;;;;;;8.85;100.00;100379.75;5236215;55;1139115;-78
2024/02/03 08:38:58;;;;;;;2.67;2.47;;;;;;;8.87;100.00;100374.33;5225750;55;1138445;-76
2024/02/03 08:44:04;;;;;;;3.33;3.00;;;;;;;8.88;100.00;100380.82;5246560;55;1138711;-77
2024/02/03 08:49:09;;;;;;;3.10;2.90;;;;;;;8.91;100.00;100378.44;5225544;54;1138406;-77
2024/02/03 08:54:15;;;;;;;3.53;2.73;;;;;;;8.94;100.00;100388.30;5295355;54;1138722;-79
2024/02/03 08:59:21;;;;;;;2.70;2.50;;;;;;;8.95;100.00;100386.50;5316076;54;1138290;-77
2024/02/03 09:04:27;;;;;;;2.67;2.43;;;;;;;8.96;100.00;100385.55;5295572;54;1138822;-79
2024/02/03 09:09:32;;;;;;;3.10;2.80;;;;;;;8.98;100.00;100378.38;5253009;54;1138461;-77
2024/02/03 09:14:38;;;;;;;2.63;2.43;;;;;;;9.00;100.00;100361.48;5225556;55;1138559;-79
2024/02/03 09:19:44;;;;;;;4.90;2.13;;;;;;;9.06;100.00;100369.41;5246264;55;1138682;-79
2024/02/03 09:24:49;;;;;;;2.92;2.52;;;;;;;9.11;100.00;100371.23;5163868;55;1138845;-79
2024/02/03 09:29:55;;;;;;;2.95;2.55;;;;;;;9.16;100.00;100375.23;5203817;54;1138799;-77
2024/02/03 09:35:00;;;;;;;2.10;1.98;;;;;;;9.23;100.00;100390.59;5193505;55;1138576;-78
2024/02/03 09:40:09;;;;;;;1.97;1.70;;;;;;;9.31;100.00;100379.00;5198118;54;1138574;-76
2024/02/03 09:45:15;;;;;;;1.27;1.27;;;;;;;9.38;100.00;100384.17;5196680;54;1138729;-76
2024/02/03 09:50:21;;;;;;;1.57;1.40;;;;;;;9.45;100.00;100377.02;5220493;54;1138644;-77
2024/02/03 09:55:27;;;;;;;1.30;1.30;;;;;;;9.52;100.00;100380.86;5223947;55;1138983;-77
2024/02/03 10:00:32;;;;;;;1.30;1.20;;;;;;;9.57;100.00;100371.76;5240118;55;1139070;-76
2024/02/03 10:05:38;;;;;;;0.70;0.70;;;;;;;9.61;100.00;100366.14;5243683;55;1138944;-78
2024/02/03 10:10:44;;;;;;;0.77;0.77;;;;;;;9.69;100.00;100361.58;5238776;55;1139005;-77
2024/02/03 10:16:02;;;;;;;0.70;0.70;;;;;;;9.84;100.00;100357.76;5224912;54;1138793;-76
2024/02/03 10:21:07;;;;;;;0.50;0.50;;;;;;;10.03;100.00;100353.22;5218658;54;1138805;-77
2024/02/03 10:26:15;;;;;;;1.23;0.77;;;;;;;10.19;100.00;100362.51;5250595;54;1140655;-77
2024/02/03 10:31:21;;;;;;;1.53;1.43;;;;;;;10.25;100.00;100360.33;5230228;55;1140647;-76
2024/02/03 10:36:26;;;;;;;1.17;1.07;;;;;;;10.27;100.00;100372.46;5237844;55;1140925;-76
2024/02/03 10:41:36;;;;;;;1.43;0.93;;;;;;;10.28;100.00;100378.11;5250445;55;1140605;-76
2024/02/03 10:46:42;;;;;;;2.87;1.47;;;;;;;10.36;100.00;100364.30;5187933;55;1140833;-76
2024/02/03 10:51:50;;;;;;;2.33;1.40;;;;;;;10.50;100.00;100383.40;5200359;55;1141146;-76
2024/02/03 10:56:56;;;;;;;2.70;1.15;;;;;;;10.52;100.00;100389.41;5220636;55;1140628;-76
2024/02/03 11:02:02;;;;;;;1.07;0.97;;;;;;;10.49;100.00;100394.94;5200917;55;1140843;-76
2024/02/03 11:07:08;;;;;;;1.17;0.83;;;;;;;10.41;100.00;100386.75;5200413;55;1140797;-77
2024/02/03 11:12:14;;;;;;;1.23;0.90;;;;;;;10.50;100.00;100403.23;5220351;55;1140800;-77
2024/02/03 11:17:19;;;;;;;2.00;0.70;;;;;;;10.53;100.00;100396.86;5199526;55;1140340;-76
2024/02/03 11:22:27;;;;;;;0.57;0.57;;;;;;;10.54;100.00;100378.72;5179796;55;1140596;-77
2024/02/03 11:27:34;;;;;;;1.20;0.80;;;;;;;10.51;100.00;100389.53;5177047;55;1140831;-76
2024/02/03 11:32:40;;;;;;;1.00;1.00;;;;;;;10.49;100.00;100381.72;5200510;55;1140589;-76
2024/02/03 11:37:46;;;;;;;1.80;0.70;;;;;;;10.51;100.00;100395.66;5180149;55;1140818;-77
2024/02/03 11:42:51;;;;;;;1.37;0.75;;;;;;;10.55;100.00;100387.81;5200551;55;1140696;-77
2024/02/03 11:47:58;;;;;;;2.90;2.50;;;;;;;10.54;100.00;100386.65;5221615;55;1140901;-77
2024/02/03 11:53:04;;;;;;;2.23;1.00;;;;;;;10.50;100.00;100391.81;5200181;55;1140685;-77
2024/02/03 11:58:10;;;;;;;1.05;0.50;;;;;;;10.51;100.00;100399.63;5200660;55;1140765;-74
2024/02/03 12:03:16;;;;;;;0.40;0.40;;;;;;;10.48;100.00;100400.34;5182029;55;1140888;-75
2024/02/03 12:08:22;;;;;;;4.33;2.90;;;;;;;10.39;100.00;100386.54;5130601;55;1140960;-76
2024/02/03 12:13:39;;;;;;;1.47;1.37;;;;;;;10.40;100.00;100414.15;5195928;55;1140520;-75
2024/02/03 12:18:46;;;;;;;0.80;0.74;;;;;;;10.41;100.00;100414.99;5215039;55;1140749;-76
2024/02/03 12:23:52;;;;;;;1.02;0.40;;;;;;;10.52;100.00;100414.53;5171942;55;1140951;-77
2024/02/03 12:28:58;;;;;;;0.50;0.50;;;;;;;10.63;100.00;100395.16;5130096;55;1140875;-77
2024/02/03 12:34:04;;;;;;;1.57;0.57;;;;;;;10.67;100.00;100395.28;5149499;55;1140843;-77
2024/02/03 12:39:11;;;;;;;2.60;1.20;;;;;;;10.89;100.00;100390.41;5143492;55;1140996;-74
2024/02/03 12:44:16;;;;;;;2.27;0.90;;;;;;;11.12;100.00;100399.98;5162530;55;1141435;-75
2024/02/03 12:49:22;;;;;;;1.00;0.97;;;;;;;11.28;100.00;100384.52;5163457;54;1140940;-78
2024/02/03 12:54:28;;;;;;;0.60;0.60;;;;;;;11.14;100.00;100390.59;5188842;55;1140861;-79
2024/02/03 12:59:33;;;;;;;4.90;1.20;;;;;;;11.02;100.00;100391.09;5196996;55;1140923;-76
2024/02/03 13:04:39;;;;;;;1.00;0.73;;;;;;;10.93;100.00;100390.05;5177111;55;1140718;-75
2024/02/03 13:09:44;;;;;;;2.42;1.40;;;;;;;10.69;100.00;100380.13;5098741;56;1140795;-73
2024/02/03 13:14:50;;;;;;;1.67;0.70;;;;;;;10.80;100.00;100378.78;5159205;55;1140755;-77
2024/02/03 13:19:57;;;;;;;20.02;7.22;;;;;;;11.01;100.00;100387.24;5133872;55;1140830;-75
2024/02/03 13:25:02;;;;;;;2.23;1.30;;;;;;;11.08;100.00;100387.95;5134482;55;1142745;-77
2024/02/03 13:30:14;;;;;;;2.30;0.78;;;;;;;11.03;100.00;100368.95;5194718;54;1141019;-76
2024/02/03 13:35:18;;;;;;;5.35;0.90;;;;;;;10.86;100.00;100381.39;5114944;56;1140649;-76
2024/02/03 13:40:23;;;;;;;14.07;6.47;;;;;;;10.66;100.00;100368.47;5132650;55;1141030;-75
2024/02/03 13:45:29;;;;;;;12.27;8.17;;;;;;;10.57;100.00;100376.64;5223503;55;1143065;-76
2024/02/03 13:50:35;;;;;;;1.67;1.27;;;;;;;10.50;100.00;100388.69;5234910;55;1142822;-85
2024/02/03 13:55:41;;;;;;;2.60;0.63;;;;;;;10.54;100.00;100384.00;5185792;54;1140931;-81
2024/02/03 14:00:46;;;;;;;1.57;1.00;;;;;;;10.97;100.00;100404.36;5235611;55;1142162;-87
2024/02/03 14:05:52;;;;;;;7.97;1.70;;;;;;;10.97;100.00;100404.36;5248220;54;1140613;-85
2024/02/03 14:10:57;;;;;;;5.43;1.00;;;;;;;11.27;100.00;100408.47;5233230;55;1140866;-86
2024/02/03 14:16:03;;;;;;;1.52;1.00;;;;;;;11.17;100.00;100394.29;5227874;55;1141051;-78
2024/02/03 14:21:09;;;;;;;2.98;1.17;;;;;;;11.35;100.00;100397.23;5269363;55;1140674;-82
2024/02/03 14:26:14;;;;;;;2.73;1.43;;;;;;;11.12;100.00;100402.63;5215478;55;1141035;-81
2024/02/03 14:31:26;;;;;;;37.63;15.83;;;;;;;10.81;100.00;100408.24;5166213;55;1140716;-81
2024/02/03 14:36:32;;;;;;;465.20;239.70;;;;;;;10.81;100.00;100408.24;5167775;55;1144513;-77
2024/02/03 14:41:38;;;;;;;4.03;1.50;;;;;;;10.75;100.00;100417.14;5178664;55;1270804;-79
2024/02/03 14:46:44;;;;;;;3.57;1.13;;;;;;;10.75;100.00;100425.91;5233704;54;1140910;-81
2024/02/03 14:51:50;;;;;;;6.17;1.60;;;;;;;10.72;100.00;100415.57;5126059;55;1141177;-77
2024/02/03 14:56:57;;;;;;;8.03;2.20;;;;;;;10.69;100.00;100413.20;5189793;55;1140588;-79
2024/02/03 15:02:03;;;;;;;8.80;1.57;;;;;;;10.73;100.00;100408.48;5199600;54;1140589;-79
2024/02/03 15:07:08;;;;;;;6.00;1.60;;;;;;;10.63;100.00;100404.41;5123278;55;1140932;-78
2024/02/03 15:12:15;;;;;;;3.72;1.05;;;;;;;10.52;100.00;100411.89;5081526;56;1140918;-79
2024/02/03 15:17:20;;;;;;;12.57;4.53;;;;;;;10.43;100.00;100409.95;5142332;55;1141190;-79
2024/02/03 15:22:26;;;;;;;11.80;2.53;;;;;;;10.36;100.00;100399.99;5187824;54;1142843;-80
2024/02/03 15:27:32;;;;;;;8.63;2.23;;;;;;;10.26;100.00;100405.14;5176947;55;1142891;-80
2024/02/03 15:32:38;;;;;;;4.80;1.13;;;;;;;10.23;100.00;100408.52;5172218;54;1141028;-78
2024/02/03 15:37:45;;;;;;;4.00;1.80;;;;;;;10.14;100.00;100412.67;5139035;55;1141033;-80
2024/02/03 15:42:50;;;;;;;7.45;1.60;;;;;;;10.12;100.00;100427.33;5192873;55;1140840;-78
2024/02/03 15:47:57;;;;;;;3.77;1.60;;;;;;;10.08;100.00;100436.44;5245608;55;1140636;-81
2024/02/03 15:53:02;;;;;;;7.27;2.00;;;;;;;10.04;100.00;100454.83;5222072;55;1140747;-81
2024/02/03 15:58:08;;;;;;;7.27;2.00;;;;;;;10.03;100.00;100438.61;5138193;55;1141134;-81
2024/02/03 16:03:14;;;;;;;6.00;2.52;;;;;;;10.01;100.00;100443.17;5160711;55;1140840;-77
2024/02/03 16:08:19;;;;;;;12.50;3.87;;;;;;;9.98;100.00;100434.63;5121604;55;1140696;-80
2024/02/03 16:13:25;;;;;;;8.80;3.57;;;;;;;9.99;100.00;100436.31;5166848;55;1140519;-81
2024/02/03 16:18:31;;;;;;;8.47;3.07;;;;;;;9.98;100.00;100443.87;5181658;55;1138677;-78
2024/02/03 16:23:36;;;;;;;7.67;3.03;;;;;;;9.92;100.00;100438.59;5099075;56;1138688;-81
2024/02/03 16:28:42;;;;;;;9.03;2.37;;;;;;;9.83;100.00;100434.84;5138265;55;1138763;-80
2024/02/03 16:33:47;;;;;;;7.62;1.98;;;;;;;9.82;100.00;100431.83;5093496;56;1138458;-79
2024/02/03 16:38:53;;;;;;;8.33;1.90;;;;;;;9.76;100.00;100438.92;5199159;55;1138668;-77
2024/02/03 16:43:59;;;;;;;5.07;2.00;;;;;;;9.71;100.00;100434.92;5132114;55;1138799;-78
2024/02/03 16:49:04;;;;;;;8.30;2.22;;;;;;;9.71;100.00;100441.53;5138547;55;1138919;-78
2024/02/03 16:54:10;;;;;;;8.40;2.12;;;;;;;9.71;100.00;100441.53;5140307;56;1139011;-78
2024/02/03 16:59:15;;;;;;;4.03;2.20;;;;;;;9.64;100.00;100431.05;5169360;55;1138926;-80
2024/02/03 17:04:21;;;;;;;5.77;2.57;;;;;;;9.61;100.00;100441.86;5195852;55;1138661;-79
2024/02/03 17:09:26;;;;;;;8.53;2.10;;;;;;;9.58;100.00;100450.01;5216329;55;1138800;-80
2024/02/03 17:14:32;;;;;;;3.13;1.30;;;;;;;9.57;100.00;100439.08;5190116;55;1138764;-78
2024/02/03 17:19:38;;;;;;;8.17;2.87;;;;;;;9.57;100.00;100436.44;5160319;55;1139008;-80
2024/02/03 17:24:46;;;;;;;6.07;1.63;;;;;;;9.56;100.00;100423.72;5145486;55;1138596;-81
2024/02/03 17:29:50;;;;;;;3.67;1.10;;;;;;;9.59;100.00;100429.25;5189002;55;1139099;-79
2024/02/03 17:34:56;;;;;;;2.75;1.80;;;;;;;9.57;100.00;100429.84;5135371;55;1138498;-78
2024/02/03 17:40:02;;;;;;;6.67;2.20;;;;;;;9.56;100.00;100425.03;5161222;55;1138633;-81
2024/02/03 17:45:08;;;;;;;4.53;3.08;;;;;;;9.48;100.00;100421.63;5127037;55;1138864;-79
2024/02/03 17:50:18;;;;;;;6.42;2.02;;;;;;;9.37;100.00;100415.48;5200814;55;1138996;-78
2024/02/03 17:55:21;;;;;;;6.87;2.00;;;;;;;9.28;100.00;100430.21;5214043;55;1139174;-81
2024/02/03 18:00:27;;;;;;;4.60;2.30;;;;;;;9.17;100.00;100434.93;5246946;55;1138733;-81
2024/02/03 18:05:34;;;;;;;5.93;3.03;;;;;;;9.07;100.00;100438.36;5226080;55;1138762;-79
2024/02/03 18:10:40;;;;;;;4.50;2.53;;;;;;;8.99;100.00;100442.89;5225565;55;1138745;-79
2024/02/03 18:15:45;;;;;;;10.15;2.90;;;;;;;8.93;100.00;100439.84;5226284;55;1138679;-81
2024/02/03 18:20:51;;;;;;;11.50;3.40;;;;;;;8.91;100.00;100439.95;5246840;55;1140587;-81
2024/02/03 18:25:56;;;;;;;4.07;2.50;;;;;;;8.90;100.00;100438.73;5143335;55;1140542;-79
2024/02/03 18:31:02;;;;;;;7.17;3.23;;;;;;;8.88;100.00;100452.03;5174309;55;1139026;-79
2024/02/03 18:36:08;;;;;;;5.53;2.47;;;;;;;8.86;100.00;100442.06;5246030;55;1138852;-79
2024/02/03 18:41:13;;;;;;;12.05;3.35;;;;;;;8.86;100.00;100448.66;5200488;55;1138802;-77
2024/02/03 18:46:19;;;;;;;7.20;2.63;;;;;;;8.80;100.00;100446.47;5226252;55;1140849;-79
2024/02/03 18:51:24;;;;;;;7.70;2.23;;;;;;;8.69;100.00;100432.75;5247072;55;1139143;-79
2024/02/03 18:56:30;;;;;;;5.93;2.93;;;;;;;8.66;100.00;100437.39;5216017;55;1138807;-78
2024/02/03 19:01:36;;;;;;;4.23;1.67;;;;;;;8.59;100.00;100426.41;5199471;55;1138916;-80
2024/02/03 19:06:41;;;;;;;3.92;2.12;;;;;;;8.55;100.00;100424.13;5197951;55;1138744;-80
2024/02/03 19:11:49;;;;;;;3.20;1.83;;;;;;;8.51;100.00;100433.20;5221743;55;1138657;-81
2024/02/03 19:16:55;;;;;;;4.67;1.90;;;;;;;8.44;100.00;100427.50;5201136;55;1138465;-80
2024/02/03 19:22:03;;;;;;;6.62;2.35;;;;;;;8.42;100.00;100432.88;5191436;55;1138563;-79
2024/02/03 19:27:08;;;;;;;4.83;2.07;;;;;;;8.41;100.00;100434.30;5152673;55;1138771;-78
2024/02/03 19:32:14;;;;;;;3.10;1.82;;;;;;;8.40;100.00;100440.55;5122343;55;1138932;-80
2024/02/03 19:37:19;;;;;;;4.78;1.67;;;;;;;8.36;100.00;100438.59;5161101;55;1138930;-79
2024/02/03 19:42:25;;;;;;;2.73;1.50;;;;;;;8.37;100.00;100443.39;5179220;55;1138703;-77
2024/02/03 19:47:30;;;;;;;2.93;1.50;;;;;;;8.36;100.00;100443.86;5194350;55;1138557;-77
2024/02/03 19:52:36;;;;;;;1.40;1.30;;;;;;;8.36;100.00;100440.38;5155830;55;1138611;-78
2024/02/03 19:57:42;;;;;;;4.53;1.90;;;;;;;8.40;100.00;100439.23;5120421;55;1138739;-78
2024/02/03 20:02:47;;;;;;;10.20;1.87;;;;;;;8.41;100.00;100438.25;5117924;56;1138523;-78
2024/02/03 20:07:53;;;;;;;4.23;1.60;;;;;;;8.40;100.00;100441.86;5068338;56;1140670;-80
2024/02/03 20:13:01;;;;;;;3.20;1.90;;;;;;;8.41;100.00;100441.73;5145538;56;1138449;-80
2024/02/03 20:18:06;;;;;;;4.85;1.27;;;;;;;8.44;100.00;100454.70;5126464;56;1138763;-80
2024/02/03 20:23:12;;;;;;;7.65;1.80;;;;;;;8.47;100.00;100445.73;5087064;56;1138802;-81
2024/02/03 20:28:21;;;;;;;8.48;3.37;;;;;;;8.51;100.00;100448.53;5138967;56;1138292;-79
2024/02/03 20:33:29;;;;;;;3.93;1.43;;;;;;;8.52;100.00;100437.52;5158688;55;1138643;-82
2024/02/03 20:38:36;;;;;;;4.27;1.10;;;;;;;8.52;100.00;100437.05;5098230;55;1138644;-80
2024/02/03 20:43:44;;;;;;;7.67;2.40;;;;;;;8.53;100.00;100448.44;5132305;56;1138441;-80
2024/02/03 20:48:49;;;;;;;3.73;1.60;;;;;;;8.50;100.00;100452.59;5131163;56;1138370;-80
2024/02/03 20:53:54;;;;;;;7.00;1.53;;;;;;;8.44;100.00;100457.33;5152332;56;1138739;-80
2024/02/03 20:59:00;;;;;;;7.23;1.60;;;;;;;8.40;100.00;100450.58;5098927;55;1138606;-79
2024/02/03 21:04:08;;;;;;;3.37;1.67;;;;;;;8.39;100.00;100455.52;5203681;55;1138478;-80
2024/02/03 21:09:16;;;;;;;1.63;1.10;;;;;;;8.35;100.00;100465.89;5237455;54;1138555;-78
2024/02/03 21:14:22;;;;;;;6.37;2.03;;;;;;;8.29;100.00;100463.63;5283836;54;1138624;-79
2024/02/03 21:19:27;;;;;;;6.43;1.60;;;;;;;8.26;100.00;100461.67;5293822;54;1138544;-81
2024/02/03 21:24:33;;;;;;;7.67;1.93;;;;;;;8.20;100.00;100455.06;5254439;53;1138637;-77
2024/02/03 21:29:38;;;;;;;2.07;1.40;;;;;;;8.17;100.00;100451.78;5239533;54;1138651;-78
2024/02/03 21:34:46;;;;;;;10.27;2.87;;;;;;;8.11;100.00;100453.03;5228797;54;1138637;-77
2024/02/03 21:39:51;;;;;;;5.63;1.60;;;;;;;8.05;100.00;100454.31;5261077;54;1140960;-77
2024/02/03 21:44:57;;;;;;;5.60;1.73;;;;;;;7.98;100.00;100451.72;5196353;54;1138848;-78
2024/02/03 21:50:02;;;;;;;9.30;1.80;;;;;;;7.94;100.00;100448.10;5277354;54;1172178;-77
2024/02/03 21:55:08;;;;;;;6.90;2.30;;;;;;;7.88;100.00;100453.77;5294762;54;1138485;-76
2024/02/03 22:00:16;;;;;;;4.30;1.65;;;;;;;7.81;100.00;100448.06;5315677;54;1138450;-78
2024/02/03 22:05:22;;;;;;;3.70;1.50;;;;;;;7.78;100.00;100440.86;5282768;54;1138447;-76
2024/02/03 22:10:27;;;;;;;7.77;1.70;;;;;;;7.73;100.00;100431.95;5283881;54;1138818;-76
2024/02/03 22:15:33;;;;;;;5.37;1.70;;;;;;;7.67;100.00;100426.61;5286880;54;1139003;-77
2024/02/03 22:20:39;;;;;;;8.50;1.70;;;;;;;7.64;100.00;100420.23;5226304;54;1138504;-78
2024/02/03 22:25:44;;;;;;;7.00;1.57;;;;;;;7.59;100.00;100415.77;5271805;54;1138366;-78
2024/02/03 22:30:52;;;;;;;7.83;1.90;;;;;;;7.54;100.00;100409.11;5233342;54;1138592;-76
2024/02/03 22:35:59;;;;;;;7.00;1.90;;;;;;;7.52;100.00;100415.79;5264969;54;1138459;-78
2024/02/03 22:41:05;;;;;;;10.87;2.27;;;;;;;7.53;100.00;100409.59;5226345;54;1138384;-78
2024/02/03 22:46:10;;;;;;;6.22;1.60;;;;;;;7.51;100.00;100425.09;5196056;55;1141029;-76
2024/02/03 22:51:16;;;;;;;5.67;1.80;;;;;;;7.52;100.00;100417.58;5210610;55;1139867;-77
2024/02/03 22:56:22;;;;;;;5.00;1.33;;;;;;;7.47;100.00;100414.43;5255713;54;1138704;-76
2024/02/03 23:01:27;;;;;;;6.10;1.50;;;;;;;7.45;100.00;100414.53;5194344;55;1138991;-77
2024/02/03 23:06:34;;;;;;;3.03;1.43;;;;;;;7.43;100.00;100419.05;5235493;54;1138821;-76